Time;durP1;ratioP1;P1;durP2;ratioP2;P2;SDS_P1;SDS_P2;PMS_P1;PMS_P2;Temp;Humidity;BMP_temperature;BMP_pressure;BME280_temperature;BME280_humidity;BME280_pressure;Samples;Min_cycle;Max_cycle;Signal;HPM_P1;HPM_P2
2021/06/10 00:13:33;;;;;;;19.23;12.53;;;18.80;97.30;;;;;;4786331;29;20458;-95
2021/06/10 00:16:22;;;;;;;16.90;13.03;;;18.80;97.30;;;;;;4833734;29;20421;-96
2021/06/10 00:18:56;;;;;;;16.10;12.27;;;18.80;97.30;;;;;;4831196;29;20474;-95
2021/06/10 00:24:04;;;;;;;15.40;12.57;;;18.80;97.30;;;;;;4890291;29;20494;-96
2021/06/10 00:26:32;;;;;;;17.03;11.87;;;18.80;97.30;;;;;;4874791;29;20422;-94
2021/06/10 00:29:03;;;;;;;18.93;12.87;;;18.80;97.30;;;;;;4874743;29;20553;-95
2021/06/10 00:31:32;;;;;;;17.10;12.97;;;18.90;97.30;;;;;;4875401;29;20415;-96
2021/06/10 00:34:04;;;;;;;20.70;13.87;;;18.90;97.30;;;;;;4873313;29;20429;-96
2021/06/10 00:36:33;;;;;;;20.13;12.53;;;18.90;97.30;;;;;;4874720;29;20411;-94
2021/06/10 00:39:02;;;;;;;17.20;12.60;;;18.90;97.30;;;;;;4870070;29;20450;-93
2021/06/10 00:41:32;;;;;;;23.33;12.50;;;18.90;97.30;;;;;;4870254;29;20527;-94
2021/06/10 00:44:04;;;;;;;17.50;13.87;;;18.90;97.30;;;;;;4872053;29;20466;-94
2021/06/10 00:46:34;;;;;;;17.00;13.27;;;18.90;97.30;;;;;;4875611;29;20423;-94
2021/06/10 00:49:03;;;;;;;17.10;12.60;;;18.90;97.30;;;;;;4874435;29;20470;-94
2021/06/10 00:51:43;;;;;;;18.23;13.40;;;18.90;97.30;;;;;;4875519;29;20426;-95
2021/06/10 00:54:15;;;;;;;17.50;12.53;;;18.90;97.30;;;;;;4876457;29;20418;-96
2021/06/10 00:56:45;;;;;;;19.00;14.20;;;18.80;97.30;;;;;;4878232;29;20493;-96
2021/06/10 00:59:33;;;;;;;21.10;13.40;;;18.80;97.30;;;;;;4875953;29;20449;-95
2021/06/10 01:02:05;;;;;;;20.43;13.73;;;18.70;97.30;;;;;;4874182;29;20426;-95
2021/06/10 01:04:33;;;;;;;18.33;13.23;;;18.60;97.30;;;;;;4873345;29;20415;-96
2021/06/10 01:07:23;;;;;;;23.17;12.73;;;18.60;97.30;;;;;;4871658;29;20521;-94
2021/06/10 01:10:13;;;;;;;15.97;12.90;;;18.60;97.30;;;;;;4871531;29;20461;-94
2021/06/10 01:13:12;;;;;;;16.57;12.20;;;18.60;97.30;;;;;;4871721;29;20463;-94
2021/06/10 01:15:54;;;;;;;17.63;12.60;;;18.60;97.30;;;;;;4872163;29;20446;-95
2021/06/10 01:21:54;;;;;;;13.97;11.20;;;18.60;97.30;;;;;;4826008;29;20426;-96
2021/06/10 01:25:03;;;;;;;18.10;11.90;;;18.60;97.30;;;;;;4877256;29;20441;-95
2021/06/10 01:28:12;;;;;;;22.63;12.50;;;18.60;97.30;;;;;;4874779;29;20430;-95
2021/06/10 01:31:01;;;;;;;19.03;12.93;;;18.60;97.30;;;;;;4865769;29;20438;-95
2021/06/10 01:33:34;;;;;;;17.70;13.60;;;18.60;97.30;;;;;;4876452;29;20422;-96
2021/06/10 01:36:32;;;;;;;19.63;13.80;;;18.60;97.30;;;;;;4877152;29;20521;-96
2021/06/10 01:39:34;;;;;;;19.77;13.90;;;18.60;97.30;;;;;;4877022;29;20438;-95
2021/06/10 01:42:04;;;;;;;22.03;13.60;;;18.60;97.30;;;;;;4886446;29;20433;-96
2021/06/10 01:44:34;;;;;;;19.53;14.20;;;18.50;97.30;;;;;;4991865;23;20507;-95
2021/06/10 01:50:24;;;;;;;18.10;13.50;;;18.60;97.30;;;;;;4927375;29;20494;-96
2021/06/10 01:52:55;;;;;;;17.40;13.27;;;18.50;97.30;;;;;;4910657;29;20416;-95
2021/06/10 01:55:45;;;;;;;17.90;12.83;;;18.60;97.30;;;;;;4911136;29;20436;-95
2021/06/10 02:01:12;;;;;;;19.40;13.60;;;18.50;97.30;;;;;;4926988;29;20435;-95
2021/06/10 02:03:44;;;;;;;17.23;12.80;;;18.40;97.30;;;;;;4908981;29;20451;-96
2021/06/10 02:06:14;;;;;;;19.27;13.53;;;18.40;97.30;;;;;;4908400;29;20427;-95
2021/06/10 02:08:46;;;;;;;18.50;13.63;;;18.40;97.30;;;;;;4908077;29;20555;-95
2021/06/10 02:11:13;;;;;;;17.10;13.43;;;18.40;97.30;;;;;;4908009;29;20437;-94
2021/06/10 02:13:42;;;;;;;19.10;13.50;;;18.40;97.30;;;;;;4907401;29;20781;-95
2021/06/10 02:16:13;;;;;;;16.53;12.57;;;18.30;97.30;;;;;;4907933;29;20416;-94
2021/06/10 02:18:55;;;;;;;19.90;14.53;;;18.30;97.30;;;;;;4906975;29;20440;-95
2021/06/10 02:21:23;;;;;;;17.53;12.83;;;18.30;97.30;;;;;;4906001;29;20413;-94
2021/06/10 02:23:52;;;;;;;26.90;14.07;;;18.30;97.30;;;;;;4905976;29;20437;-93
2021/06/10 02:26:24;;;;;;;19.33;14.03;;;18.30;97.30;;;;;;4905690;29;20449;-94
2021/06/10 02:28:52;;;;;;;24.07;14.80;;;18.30;97.30;;;;;;4906251;29;20479;-93
2021/06/10 02:31:24;;;;;;;22.60;14.97;;;18.30;97.30;;;;;;4906315;29;20433;-94
2021/06/10 02:33:55;;;;;;;20.87;14.30;;;18.30;97.30;;;;;;4906852;29;20786;-95
2021/06/10 02:36:24;;;;;;;23.20;14.20;;;18.30;97.30;;;;;;4905960;29;20417;-94
2021/06/10 02:39:15;;;;;;;19.07;14.40;;;18.30;97.30;;;;;;4904767;29;20449;-93
2021/06/10 02:41:53;;;;;;;20.40;15.27;;;18.30;97.30;;;;;;4905543;29;20412;-93
2021/06/10 02:44:35;;;;;;;21.63;14.67;;;18.20;97.30;;;;;;4924617;29;20491;-93
2021/06/10 02:47:12;;;;;;;22.70;15.80;;;18.20;97.30;;;;;;4907839;29;20429;-93
2021/06/10 02:49:45;;;;;;;23.93;16.40;;;18.20;97.30;;;;;;4908625;29;20495;-93
2021/06/10 02:52:24;;;;;;;22.83;16.17;;;18.10;97.30;;;;;;4908780;29;20496;-95
2021/06/10 02:54:54;;;;;;;24.03;17.10;;;18.10;97.30;;;;;;4908110;29;20449;-93
2021/06/10 02:57:24;;;;;;;27.17;17.50;;;18.10;97.30;;;;;;4907352;29;20412;-92
2021/06/10 03:00:12;;;;;;;24.73;17.77;;;18.10;97.30;;;;;;4906447;29;20437;-93
2021/06/10 03:02:44;;;;;;;24.27;17.97;;;18.10;97.30;;;;;;4906815;29;20468;-93
2021/06/10 03:05:25;;;;;;;25.47;17.80;;;18.10;97.30;;;;;;4907012;29;20420;-93
2021/06/10 03:07:55;;;;;;;27.53;18.30;;;18.20;97.30;;;;;;4907628;29;20528;-94
2021/06/10 03:10:33;;;;;;;23.90;17.83;;;18.20;97.30;;;;;;4908485;29;20504;-93
2021/06/10 03:13:02;;;;;;;25.00;16.93;;;18.20;97.30;;;;;;4908593;29;20426;-93
2021/06/10 03:15:33;;;;;;;24.60;17.03;;;18.20;97.30;;;;;;4907782;29;20416;-93
2021/06/10 03:18:03;;;;;;;27.90;17.93;;;18.20;97.30;;;;;;4908212;29;20928;-92
2021/06/10 03:34:35;;;;;;;;;;;;;;;;;;;;;
2021/06/10 03:37:42;;;;;;;27.07;17.73;;;18.10;97.30;;;;;;4793863;30;20506;-94
2021/06/10 03:40:34;;;;;;;25.00;18.17;;;18.10;97.30;;;;;;4792769;30;20529;-94
2021/06/10 03:43:13;;;;;;;28.60;19.40;;;18.10;97.30;;;;;;4778519;30;20423;-93
2021/06/10 03:45:44;;;;;;;27.07;18.97;;;18.10;97.30;;;;;;4773452;30;20488;-93
2021/06/10 03:48:25;;;;;;;31.60;19.80;;;18.10;97.30;;;;;;4778218;30;20478;-93
2021/06/10 03:54:23;;;;;;;34.70;21.70;;;18.20;97.30;;;;;;4837599;29;20468;-94
2021/06/10 04:00:14;;;;;;;33.90;19.43;;;18.20;97.30;;;;;;4927388;29;20207;-94
2021/06/10 04:02:45;;;;;;;29.73;20.70;;;18.30;97.30;;;;;;4909994;29;20444;-94
2021/06/10 04:05:14;;;;;;;31.23;20.67;;;18.30;97.30;;;;;;4909728;29;20452;-94
2021/06/10 04:07:55;;;;;;;29.83;20.90;;;18.30;97.30;;;;;;4909695;29;20452;-94
2021/06/10 04:10:45;;;;;;;31.93;21.23;;;18.30;97.30;;;;;;4892080;29;20428;-93
2021/06/10 04:13:14;;;;;;;29.90;19.67;;;18.30;97.30;;;;;;4910137;29;20416;-93
2021/06/10 04:15:45;;;;;;;33.50;22.17;;;18.30;97.30;;;;;;4910976;29;20472;-93
2021/06/10 04:22:24;;;;;;;30.07;19.97;;;18.30;97.30;;;;;;4927442;29;20400;-94
2021/06/10 04:28:33;;;;;;;33.23;20.33;;;18.30;97.30;;;;;;4926722;29;20507;-94
2021/06/10 04:31:05;;;;;;;34.87;21.50;;;18.30;97.30;;;;;;4909747;29;20424;-94
2021/06/10 04:33:34;;;;;;;32.33;19.30;;;18.30;97.30;;;;;;4911530;29;20428;-94
2021/06/10 04:36:24;;;;;;;31.50;19.60;;;18.30;97.30;;;;;;4913289;29;20453;-94
2021/06/10 04:38:53;;;;;;;32.37;20.13;;;18.30;97.30;;;;;;4911015;29;20440;-94
2021/06/10 04:41:25;;;;;;;32.33;21.20;;;18.30;97.30;;;;;;4910842;29;20420;-95
2021/06/10 04:44:14;;;;;;;34.17;20.30;;;18.30;97.30;;;;;;4910328;29;20413;-94
2021/06/10 04:46:54;;;;;;;34.70;21.40;;;18.30;97.30;;;;;;4906956;29;20424;-94
2021/06/10 04:49:23;;;;;;;34.23;21.00;;;18.20;97.30;;;;;;4907183;29;20903;-94
2021/06/10 04:51:53;;;;;;;31.40;18.97;;;18.20;97.30;;;;;;4909185;29;20424;-94
2021/06/10 04:54:44;;;;;;;35.60;21.27;;;18.30;97.30;;;;;;4911243;29;20412;-95
2021/06/10 04:58:25;;;;;;;31.90;19.80;;;18.30;97.30;;;;;;4911767;29;20417;-94
2021/06/10 05:00:55;;;;;;;34.20;20.87;;;18.40;97.30;;;;;;4910753;29;20480;-93
2021/06/10 05:03:24;;;;;;;32.70;21.43;;;18.40;97.30;;;;;;4905988;29;20420;-95
2021/06/10 05:06:23;;;;;;;36.00;21.80;;;18.40;97.30;;;;;;4910365;29;20428;-94
2021/06/10 05:08:55;;;;;;;34.60;21.40;;;18.40;97.30;;;;;;4909315;29;20477;-93
2021/06/10 05:11:23;;;;;;;34.60;22.23;;;18.40;97.30;;;;;;4907199;29;20492;-93
2021/06/10 05:14:54;;;;;;;32.17;22.40;;;18.40;97.30;;;;;;4907037;29;20425;-93
2021/06/10 05:27:25;;;;;;;34.90;20.40;;;18.50;97.30;;;;;;4829403;29;20432;-95
2021/06/10 05:29:53;;;;;;;34.63;20.67;;;18.60;97.30;;;;;;4812278;29;20464;-93
2021/06/10 05:32:24;;;;;;;32.03;20.03;;;18.60;97.30;;;;;;4811053;29;20511;-93
2021/06/10 05:34:53;;;;;;;32.57;21.97;;;18.60;97.30;;;;;;4812464;29;20448;-93
2021/06/10 05:37:25;;;;;;;30.37;19.47;;;18.70;97.30;;;;;;4815131;29;20417;-92
2021/06/10 05:39:53;;;;;;;29.73;19.40;;;18.70;97.30;;;;;;4811834;29;20512;-93
2021/06/10 05:42:21;;;;;;;32.63;19.97;;;18.80;97.30;;;;;;4810722;29;20425;-93
2021/06/10 05:44:53;;;;;;;38.93;19.40;;;18.80;97.30;;;;;;4835832;29;20478;-92
2021/06/10 05:47:22;;;;;;;28.83;19.40;;;18.90;97.30;;;;;;4866839;29;20415;-92
2021/06/10 05:49:54;;;;;;;33.20;19.53;;;18.90;97.30;;;;;;4902520;29;20452;-92
2021/06/10 05:52:24;;;;;;;30.60;18.50;;;19.00;97.30;;;;;;4903536;29;20777;-94
2021/06/10 05:54:52;;;;;;;27.00;18.17;;;19.10;97.30;;;;;;4904302;29;20417;-95
2021/06/10 05:57:35;;;;;;;29.43;18.73;;;19.10;97.30;;;;;;4904334;29;20444;-93
2021/06/10 06:00:05;;;;;;;31.57;18.10;;;19.20;97.30;;;;;;4905135;29;20445;-94
2021/06/10 06:02:31;;;;;;;27.57;18.43;;;19.30;97.30;;;;;;4903617;29;20475;-93
2021/06/10 06:05:03;;;;;;;31.10;19.60;;;19.30;97.30;;;;;;4904317;29;20880;-94
2021/06/10 06:07:31;;;;;;;27.83;19.03;;;19.40;97.30;;;;;;4903851;29;20275;-94
2021/06/10 06:10:05;;;;;;;27.03;17.63;;;19.50;97.30;;;;;;4903497;29;20469;-93
2021/06/10 06:12:34;;;;;;;27.03;17.40;;;19.50;97.30;;;;;;4904968;29;20428;-94
2021/06/10 06:15:03;;;;;;;23.30;17.00;;;19.60;97.30;;;;;;4905080;29;20460;-93
2021/06/10 06:17:30;;;;;;;22.90;16.60;;;19.70;97.30;;;;;;4906759;29;20512;-94
2021/06/10 06:20:03;;;;;;;22.43;16.80;;;19.80;97.30;;;;;;4908828;29;20752;-94
2021/06/10 06:22:31;;;;;;;23.90;16.73;;;19.80;97.30;;;;;;4908414;29;20943;-94
2021/06/10 06:25:01;;;;;;;25.50;16.50;;;19.90;97.30;;;;;;4908592;29;20440;-94
2021/06/10 06:27:34;;;;;;;23.27;16.57;;;20.00;97.30;;;;;;4909262;29;20833;-93
2021/06/10 06:30:04;;;;;;;31.20;16.03;;;20.10;97.30;;;;;;4909232;29;20448;-94
2021/06/10 06:32:34;;;;;;;24.27;17.63;;;20.20;97.30;;;;;;4908555;29;20463;-93
2021/06/10 06:35:04;;;;;;;22.57;14.87;;;20.20;97.30;;;;;;4909146;29;20412;-95
2021/06/10 06:37:33;;;;;;;25.07;15.97;;;20.30;97.30;;;;;;4909157;29;20416;-94
2021/06/10 06:40:04;;;;;;;21.50;14.17;;;20.40;97.30;;;;;;4908831;29;20455;-93
2021/06/10 06:42:33;;;;;;;24.77;14.77;;;20.40;97.30;;;;;;4910565;29;20444;-94
2021/06/10 06:45:02;;;;;;;22.60;15.97;;;20.50;97.30;;;;;;4908720;29;20528;-94
2021/06/10 06:47:33;;;;;;;23.07;15.60;;;20.60;97.30;;;;;;4909124;29;20427;-94
2021/06/10 06:49:59;;;;;;;21.43;13.73;;;20.70;97.30;;;;;;4923432;23;20557;-76
2021/06/10 06:52:24;;;;;;;25.50;13.83;;;20.70;97.30;;;;;;4919228;29;20428;-76
2021/06/10 06:54:50;;;;;;;21.30;14.60;;;20.80;97.30;;;;;;4917055;29;20195;-76
2021/06/10 06:57:16;;;;;;;23.73;15.13;;;20.80;97.30;;;;;;4919669;29;20272;-76
2021/06/10 06:59:44;;;;;;;22.33;15.03;;;20.90;97.30;;;;;;4936240;29;20415;-76
2021/06/10 07:02:10;;;;;;;24.40;14.83;;;21.00;97.30;;;;;;4918328;29;20443;-75
2021/06/10 07:04:35;;;;;;;22.93;15.23;;;21.00;97.30;;;;;;4908269;29;20436;-76
2021/06/10 07:07:01;;;;;;;23.80;13.97;;;21.10;97.30;;;;;;4900378;29;20189;-76
2021/06/10 07:09:27;;;;;;;18.70;14.17;;;21.20;97.30;;;;;;4900158;29;20282;-75
2021/06/10 07:11:53;;;;;;;18.93;13.50;;;21.20;97.30;;;;;;4917236;29;20199;-76
2021/06/10 07:14:19;;;;;;;19.47;13.83;;;21.30;97.30;;;;;;4918867;29;20435;-76
2021/06/10 07:16:45;;;;;;;19.97;12.63;;;21.30;97.30;;;;;;4919038;29;20187;-76
2021/06/10 07:19:10;;;;;;;19.20;13.50;;;21.40;97.30;;;;;;4918244;29;20215;-77
2021/06/10 07:21:48;;;;;;;19.40;12.63;;;21.50;97.30;;;;;;4904425;29;20208;-76
2021/06/10 07:24:14;;;;;;;17.60;13.70;;;21.60;97.30;;;;;;4900137;29;20208;-77
2021/06/10 07:26:42;;;;;;;18.00;13.07;;;21.70;97.30;;;;;;4900596;29;20417;-76
2021/06/10 07:29:08;;;;;;;20.10;13.67;;;21.70;97.30;;;;;;4916606;29;20479;-76
2021/06/10 07:31:34;;;;;;;19.70;12.90;;;21.90;97.30;;;;;;4899350;29;20810;-76
2021/06/10 07:34:02;;;;;;;18.57;12.20;;;21.90;97.30;;;;;;4915779;29;20668;-76
2021/06/10 07:36:28;;;;;;;18.33;14.03;;;22.00;97.30;;;;;;4899383;29;20872;-76
2021/06/10 07:38:53;;;;;;;17.13;12.70;;;22.10;97.30;;;;;;4899585;29;20481;-76
2021/06/10 07:41:19;;;;;;;15.40;12.30;;;22.20;97.30;;;;;;4900770;29;20217;-76
2021/06/10 07:43:44;;;;;;;22.17;13.60;;;22.30;97.30;;;;;;4901805;29;20187;-76
2021/06/10 07:46:10;;;;;;;15.40;12.00;;;22.40;97.30;;;;;;4899864;29;20199;-76
2021/06/10 07:48:36;;;;;;;24.03;12.47;;;22.40;97.30;;;;;;4922063;29;20219;-76
2021/06/10 07:51:05;;;;;;;16.33;12.13;;;22.50;97.30;;;;;;4900595;29;20460;-76
2021/06/10 07:53:31;;;;;;;16.57;11.60;;;22.60;97.30;;;;;;4899785;29;20578;-76
2021/06/10 07:55:58;;;;;;;15.27;11.70;;;22.60;95.60;;;;;;4899490;29;20820;-76
2021/06/10 07:58:24;;;;;;;17.40;12.30;;;22.60;95.80;;;;;;4899336;29;20197;-76
2021/06/10 08:00:50;;;;;;;14.80;11.83;;;22.60;96.00;;;;;;4899334;29;20471;-76
2021/06/10 08:03:15;;;;;;;17.80;12.13;;;22.70;96.80;;;;;;4908389;29;20943;-76
2021/06/10 08:05:41;;;;;;;15.60;10.70;;;22.80;96.00;;;;;;4917059;29;20195;-76
2021/06/10 08:08:06;;;;;;;16.10;12.40;;;22.80;95.80;;;;;;4898980;29;20205;-76
2021/06/10 08:10:32;;;;;;;14.23;11.27;;;22.90;96.00;;;;;;4916146;29;20181;-75
2021/06/10 08:12:58;;;;;;;13.87;11.23;;;23.00;95.90;;;;;;4899182;29;20212;-76
2021/06/10 08:15:23;;;;;;;16.73;11.40;;;23.00;94.40;;;;;;4899190;29;20180;-77
2021/06/10 08:17:49;;;;;;;17.20;11.90;;;23.10;94.70;;;;;;4915732;29;20271;-77
2021/06/10 08:20:17;;;;;;;16.07;10.73;;;23.10;95.40;;;;;;4934816;29;20306;-76
2021/06/10 08:22:42;;;;;;;14.43;10.73;;;23.10;96.20;;;;;;4917864;29;20179;-77
2021/06/10 08:25:09;;;;;;;12.83;10.60;;;23.20;96.50;;;;;;4934853;29;20416;-76
2021/06/10 08:27:36;;;;;;;17.50;12.70;;;23.20;95.70;;;;;;4903987;29;20232;-78
2021/06/10 08:30:03;;;;;;;16.73;9.90;;;23.20;96.40;;;;;;4898364;29;20452;-77
2021/06/10 08:32:28;;;;;;;17.03;10.73;;;23.20;94.90;;;;;;4915510;29;20497;-74
2021/06/10 08:34:54;;;;;;;16.07;10.67;;;23.30;95.40;;;;;;4899157;29;20417;-76
2021/06/10 08:37:19;;;;;;;16.03;11.30;;;23.30;95.00;;;;;;4898684;29;20201;-73
2021/06/10 08:39:45;;;;;;;14.30;10.23;;;23.30;93.60;;;;;;4897979;29;20241;-75
2021/06/10 08:42:11;;;;;;;13.63;9.90;;;23.40;94.40;;;;;;4897658;29;20200;-76
2021/06/10 08:44:37;;;;;;;14.60;9.53;;;23.40;94.10;;;;;;4913118;29;20184;-73
2021/06/10 08:47:03;;;;;;;13.17;10.13;;;23.50;92.90;;;;;;4916566;29;20187;-76
2021/06/10 08:49:30;;;;;;;19.60;11.37;;;23.50;93.70;;;;;;4916968;29;20228;-76
2021/06/10 08:51:56;;;;;;;16.77;10.30;;;23.50;92.60;;;;;;4916936;29;20470;-73
2021/06/10 08:54:22;;;;;;;16.40;9.30;;;23.50;93.00;;;;;;4905039;29;20944;-75
2021/06/10 08:56:48;;;;;;;10.80;8.80;;;23.60;92.80;;;;;;4898419;29;20432;-74
2021/06/10 08:59:13;;;;;;;13.00;9.07;;;23.70;92.80;;;;;;4897956;29;20188;-76
2021/06/10 09:01:42;;;;;;;11.33;9.20;;;23.70;92.40;;;;;;4917866;29;20239;-75
2021/06/10 09:04:09;;;;;;;13.33;9.67;;;23.80;92.60;;;;;;4916627;29;20271;-75
2021/06/10 09:06:50;;;;;;;12.27;9.90;;;23.90;91.60;;;;;;4913744;29;20483;-74
2021/06/10 09:09:32;;;;;;;14.27;11.13;;;23.90;91.40;;;;;;4913517;29;20468;-74
2021/06/10 09:12:06;;;;;;;17.47;11.43;;;24.00;92.30;;;;;;4916030;29;21054;-75
2021/06/10 09:14:56;;;;;;;12.60;9.53;;;24.00;92.90;;;;;;4933850;29;20656;-74
2021/06/10 09:17:30;;;;;;;15.80;11.27;;;24.10;91.90;;;;;;4932277;29;20428;-75
2021/06/10 09:19:56;;;;;;;13.17;10.20;;;24.20;91.60;;;;;;4910888;29;20987;-75
2021/06/10 09:22:33;;;;;;;19.13;10.53;;;24.20;91.60;;;;;;4897686;29;20449;-75
2021/06/10 09:25:16;;;;;;;14.57;10.10;;;24.20;92.20;;;;;;4898016;29;20463;-75
2021/06/10 09:27:59;;;;;;;11.57;9.20;;;24.30;92.00;;;;;;4897333;29;20444;-75
2021/06/10 09:30:35;;;;;;;17.60;8.70;;;24.30;91.10;;;;;;4905092;29;20419;-75
2021/06/10 09:33:05;;;;;;;11.13;9.10;;;24.30;89.50;;;;;;4916119;29;20425;-76
2021/06/10 09:35:33;;;;;;;14.60;9.60;;;24.30;89.10;;;;;;4915241;29;20998;-75
2021/06/10 09:38:04;;;;;;;15.33;10.90;;;24.40;90.10;;;;;;4916326;29;20453;-74
2021/06/10 09:40:30;;;;;;;19.67;11.10;;;24.50;90.70;;;;;;4933200;29;20467;-75
2021/06/10 09:42:57;;;;;;;18.60;10.80;;;24.60;90.40;;;;;;4916420;29;20416;-75
2021/06/10 09:45:27;;;;;;;12.60;10.67;;;24.70;90.70;;;;;;4914876;29;20846;-75
2021/06/10 09:47:55;;;;;;;16.97;11.10;;;24.80;91.10;;;;;;4911706;29;20507;-75
2021/06/10 09:50:24;;;;;;;19.67;8.97;;;25.00;90.00;;;;;;4898253;29;20475;-76
2021/06/10 09:53:02;;;;;;;14.20;9.00;;;25.00;88.40;;;;;;4901652;29;20413;-77
2021/06/10 09:55:51;;;;;;;14.10;8.30;;;25.10;87.20;;;;;;4904285;29;20419;-76
2021/06/10 09:58:17;;;;;;;11.63;9.80;;;25.10;86.90;;;;;;4903750;29;20515;-76
2021/06/10 10:00:45;;;;;;;12.93;10.40;;;25.10;88.40;;;;;;4906882;29;20485;-76
2021/06/10 10:03:26;;;;;;;12.03;8.97;;;25.20;89.20;;;;;;4939754;29;20206;-76
2021/06/10 10:05:53;;;;;;;16.40;11.13;;;25.10;88.10;;;;;;4903422;29;20439;-76
2021/06/10 10:08:19;;;;;;;11.43;9.70;;;25.10;87.60;;;;;;4920316;29;20460;-76
2021/06/10 10:10:45;;;;;;;14.50;9.30;;;25.10;89.90;;;;;;4904247;29;20479;-76
2021/06/10 10:13:16;;;;;;;9.60;8.10;;;25.20;89.20;;;;;;4920515;29;20182;-77
2021/06/10 10:15:43;;;;;;;9.83;8.50;;;25.30;88.30;;;;;;4921241;29;20433;-76
2021/06/10 10:18:10;;;;;;;12.03;8.10;;;25.40;85.70;;;;;;4916856;29;20431;-77
2021/06/10 10:20:38;;;;;;;10.07;8.57;;;25.50;88.20;;;;;;4922224;29;20493;-76
2021/06/10 10:23:04;;;;;;;13.53;8.70;;;25.50;86.30;;;;;;4939591;29;20934;-77
2021/06/10 10:25:31;;;;;;;12.67;8.87;;;25.60;87.20;;;;;;4920751;29;20427;-76
2021/06/10 10:27:57;;;;;;;9.30;7.20;;;25.60;86.10;;;;;;4921970;29;20940;-77
2021/06/10 10:30:23;;;;;;;14.20;9.00;;;25.60;86.80;;;;;;4922533;29;20411;-76
2021/06/10 10:32:49;;;;;;;12.23;9.20;;;25.70;88.20;;;;;;4922301;29;20428;-76
2021/06/10 10:35:35;;;;;;;10.60;9.40;;;25.70;88.20;;;;;;4921633;29;20427;-76
2021/06/10 10:38:14;;;;;;;11.87;8.57;;;25.70;89.00;;;;;;4939096;29;20654;-76
2021/06/10 10:40:50;;;;;;;15.00;10.03;;;25.70;89.80;;;;;;4922200;29;20439;-76
2021/06/10 10:43:15;;;;;;;10.20;8.37;;;25.70;87.10;;;;;;4922148;29;20465;-76
2021/06/10 10:45:44;;;;;;;12.77;8.27;;;25.50;85.80;;;;;;4921787;29;20888;-76
2021/06/10 10:48:12;;;;;;;13.70;9.03;;;25.50;87.10;;;;;;4908977;29;20213;-76
2021/06/10 10:50:48;;;;;;;10.63;8.30;;;25.60;88.20;;;;;;4903538;29;20539;-76
2021/06/10 10:53:21;;;;;;;12.27;9.03;;;25.70;88.60;;;;;;4903516;29;20416;-76
2021/06/10 10:56:03;;;;;;;10.83;9.57;;;25.80;86.80;;;;;;4904215;29;20460;-76
2021/06/10 10:58:29;;;;;;;15.23;8.93;;;25.80;85.20;;;;;;4903149;29;20775;-75
2021/06/10 11:00:57;;;;;;;11.67;8.87;;;25.90;86.00;;;;;;4903370;29;20850;-75
2021/06/10 11:03:25;;;;;;;9.57;8.67;;;26.00;85.20;;;;;;4921845;29;20428;-75
2021/06/10 11:05:51;;;;;;;11.43;8.73;;;26.10;84.80;;;;;;4919048;29;20470;-75
2021/06/10 11:08:17;;;;;;;10.70;9.20;;;26.20;86.60;;;;;;4918934;29;21112;-76
2021/06/10 11:10:51;;;;;;;11.00;8.27;;;26.10;84.80;;;;;;4918908;29;20452;-76
2021/06/10 11:13:25;;;;;;;11.57;8.50;;;26.10;84.70;;;;;;4918314;29;20614;-75
2021/06/10 11:15:53;;;;;;;10.47;7.53;;;26.10;83.60;;;;;;4918439;29;20423;-76
2021/06/10 11:18:38;;;;;;;10.47;9.07;;;26.20;86.40;;;;;;4918999;29;20424;-76
2021/06/10 11:21:03;;;;;;;10.67;8.13;;;26.30;85.90;;;;;;4935930;29;20460;-76
2021/06/10 11:23:29;;;;;;;10.20;8.20;;;26.30;85.00;;;;;;4933968;29;21057;-76
2021/06/10 11:25:57;;;;;;;14.63;8.80;;;26.30;84.10;;;;;;4899978;29;20184;-76
2021/06/10 11:28:26;;;;;;;10.13;8.80;;;26.20;84.80;;;;;;4899479;29;20208;-75
2021/06/10 11:31:11;;;;;;;14.00;8.73;;;26.20;85.40;;;;;;4900729;29;20552;-76
2021/06/10 11:33:41;;;;;;;11.23;9.43;;;26.20;85.00;;;;;;4900625;29;20405;-76
2021/06/10 11:36:09;;;;;;;9.40;8.00;;;26.20;85.60;;;;;;4899772;29;20432;-76
2021/06/10 11:38:48;;;;;;;10.80;7.53;;;26.30;85.30;;;;;;4898721;29;20472;-76
2021/06/10 11:41:21;;;;;;;11.20;6.73;;;26.10;85.60;;;;;;4906966;29;20451;-75
2021/06/10 11:43:55;;;;;;;12.03;6.50;;;25.90;85.00;;;;;;4916983;29;20527;-76
2021/06/10 11:46:28;;;;;;;7.13;6.03;;;25.60;84.70;;;;;;4899743;29;20505;-77
2021/06/10 11:48:54;;;;;;;7.33;6.23;;;25.40;84.30;;;;;;4900587;29;20528;-75
2021/06/10 11:51:25;;;;;;;13.33;6.33;;;25.10;84.80;;;;;;4899425;29;20448;-75
2021/06/10 11:54:11;;;;;;;7.57;6.20;;;24.90;85.20;;;;;;4916360;29;20260;-75
2021/06/10 11:56:38;;;;;;;12.23;7.40;;;24.80;85.70;;;;;;4916882;29;20431;-75
2021/06/10 11:59:15;;;;;;;8.27;7.00;;;24.80;86.30;;;;;;4932325;29;20850;-75
2021/06/10 12:01:58;;;;;;;11.13;7.50;;;24.90;86.30;;;;;;4916584;29;20440;-75
2021/06/10 12:04:28;;;;;;;8.40;7.70;;;24.80;86.70;;;;;;4916569;29;20952;-75
2021/06/10 12:07:17;;;;;;;10.37;7.60;;;25.00;87.00;;;;;;4908576;29;20439;-76
2021/06/10 12:09:53;;;;;;;9.20;7.20;;;25.10;87.00;;;;;;4899007;29;20532;-75
2021/06/10 12:12:43;;;;;;;12.53;7.73;;;25.10;86.20;;;;;;4899172;29;20465;-76
2021/06/10 12:15:34;;;;;;;14.23;8.33;;;25.10;86.10;;;;;;4898674;29;20431;-76
2021/06/10 12:18:09;;;;;;;10.93;7.60;;;25.20;87.00;;;;;;4898996;29;20439;-76
2021/06/10 12:20:37;;;;;;;8.30;7.20;;;25.50;87.20;;;;;;4898626;29;20520;-76
2021/06/10 12:23:09;;;;;;;9.30;7.80;;;25.70;86.10;;;;;;4899902;29;20820;-76
2021/06/10 12:25:35;;;;;;;11.47;7.47;;;26.00;84.80;;;;;;4898787;29;20496;-76
2021/06/10 12:28:02;;;;;;;9.57;7.90;;;26.30;85.50;;;;;;4898249;29;20492;-76
2021/06/10 12:30:37;;;;;;;8.90;7.90;;;26.50;84.30;;;;;;4898998;29;20204;-76
2021/06/10 12:33:20;;;;;;;12.17;8.37;;;26.70;83.30;;;;;;4902721;29;20431;-76
2021/06/10 12:35:48;;;;;;;13.23;8.20;;;26.80;83.10;;;;;;4901509;29;20428;-76
2021/06/10 12:38:15;;;;;;;10.03;8.60;;;27.00;84.40;;;;;;4898343;29;20475;-75
2021/06/10 12:40:44;;;;;;;15.77;9.00;;;27.10;82.90;;;;;;4898426;29;20492;-76
2021/06/10 12:43:23;;;;;;;10.40;8.67;;;27.30;82.90;;;;;;4898934;29;20420;-76
2021/06/10 12:46:01;;;;;;;9.00;8.53;;;27.40;84.40;;;;;;4913606;29;20431;-78
2021/06/10 12:48:29;;;;;;;9.37;7.93;;;27.60;82.80;;;;;;4913482;29;20678;-77
2021/06/10 12:51:31;;;;;;;12.00;8.57;;;27.70;83.30;;;;;;4898505;29;20524;-77
2021/06/10 12:54:04;;;;;;;9.73;7.90;;;27.70;81.90;;;;;;4898585;29;20839;-77
2021/06/10 12:56:40;;;;;;;9.57;7.53;;;27.80;83.10;;;;;;4898434;29;20417;-78
2021/06/10 12:59:07;;;;;;;10.13;7.77;;;27.80;82.80;;;;;;4898054;29;20432;-77
2021/06/10 13:01:34;;;;;;;11.30;8.17;;;28.00;85.40;;;;;;4898317;29;20808;-76
2021/06/10 13:04:00;;;;;;;8.70;7.77;;;28.20;83.80;;;;;;4904649;29;20479;-76
2021/06/10 13:06:28;;;;;;;8.30;7.20;;;28.30;81.50;;;;;;4916671;29;20412;-76
2021/06/10 13:08:54;;;;;;;7.13;6.73;;;28.30;79.80;;;;;;4933473;29;20737;-77
2021/06/10 13:11:20;;;;;;;13.47;7.70;;;28.10;81.20;;;;;;4899248;29;20531;-76
2021/06/10 13:13:47;;;;;;;11.13;7.07;;;27.90;80.10;;;;;;4915297;29;20259;-76
2021/06/10 13:16:16;;;;;;;10.77;7.20;;;27.70;80.60;;;;;;4897876;29;20424;-77
2021/06/10 13:18:43;;;;;;;9.70;6.50;;;27.50;81.50;;;;;;4897604;29;20475;-79
2021/06/10 13:21:18;;;;;;;9.23;7.23;;;27.40;81.80;;;;;;4912838;29;20460;-77
2021/06/10 13:23:48;;;;;;;9.10;7.33;;;27.30;81.90;;;;;;4898235;29;20432;-78
2021/06/10 13:26:36;;;;;;;9.33;7.10;;;27.50;82.80;;;;;;4897645;29;20432;-78
2021/06/10 13:29:05;;;;;;;12.30;7.53;;;27.70;81.80;;;;;;4897682;29;20555;-77
2021/06/10 13:31:52;;;;;;;12.00;7.27;;;27.70;82.00;;;;;;4897260;29;20959;-78
2021/06/10 13:34:26;;;;;;;9.47;7.60;;;27.90;82.70;;;;;;4915146;29;20459;-77
2021/06/10 13:36:56;;;;;;;14.80;7.13;;;28.00;82.00;;;;;;4898668;29;20427;-78
2021/06/10 13:39:23;;;;;;;9.63;7.70;;;28.20;82.70;;;;;;4897457;29;20428;-78
2021/06/10 13:41:50;;;;;;;13.93;8.00;;;28.30;80.90;;;;;;4897487;29;20440;-77
2021/06/10 13:44:16;;;;;;;9.00;7.30;;;28.30;80.90;;;;;;4914356;29;20846;-77
2021/06/10 13:46:42;;;;;;;10.13;6.67;;;28.40;81.20;;;;;;4909097;29;20514;-77
2021/06/10 13:49:08;;;;;;;8.70;6.83;;;28.40;81.00;;;;;;4915949;29;20247;-78
2021/06/10 13:51:34;;;;;;;9.03;7.40;;;28.50;81.10;;;;;;4933538;29;20804;-77
2021/06/10 13:53:59;;;;;;;11.93;7.23;;;28.40;80.70;;;;;;4910135;29;20662;-77
2021/06/10 13:56:27;;;;;;;10.90;7.93;;;28.30;81.40;;;;;;4934980;29;20583;-77
2021/06/10 13:58:53;;;;;;;7.97;7.60;;;28.30;82.40;;;;;;4908933;29;20188;-78
2021/06/10 14:01:19;;;;;;;12.90;7.43;;;28.30;80.40;;;;;;4904580;29;20598;-79
2021/06/10 14:03:44;;;;;;;8.80;7.10;;;28.20;80.40;;;;;;4906059;29;20595;-79